sensor_id;sensor_type;location;lat;lon;timestamp;P1;P2;P0
24012;PMS7003;12220;50.194;18.948;2023-01-26T00:00:02;35;26;17
24012;PMS7003;12220;50.194;18.948;2023-01-26T00:02:05;29;28;18
24012;PMS7003;12220;50.194;18.948;2023-01-26T00:04:06;40;32;21
24012;PMS7003;12220;50.194;18.948;2023-01-26T00:06:08;21;21;15
24012;PMS7003;12220;50.194;18.948;2023-01-26T00:08:17;20;16;11
24012;PMS7003;12220;50.194;18.948;2023-01-26T00:10:19;28;24;16
24012;PMS7003;12220;50.194;18.948;2023-01-26T00:12:20;30;28;17
24012;PMS7003;12220;50.194;18.948;2023-01-26T00:14:22;35;25;17
24012;PMS7003;12220;50.194;18.948;2023-01-26T00:16:33;31;25;13
24012;PMS7003;12220;50.194;18.948;2023-01-26T00:18:35;22;22;14
24012;PMS7003;12220;50.194;18.948;2023-01-26T00:20:38;28;25;17
24012;PMS7003;12220;50.194;18.948;2023-01-26T00:22:40;34;30;19
24012;PMS7003;12220;50.194;18.948;2023-01-26T00:24:49;36;28;14
24012;PMS7003;12220;50.194;18.948;2023-01-26T00:26:50;23;23;16
24012;PMS7003;12220;50.194;18.948;2023-01-26T00:28:52;35;32;20
24012;PMS7003;12220;50.194;18.948;2023-01-26T00:31:00;35;30;19
24012;PMS7003;12220;50.194;18.948;2023-01-26T00:33:06;33;27;15
24012;PMS7003;12220;50.194;18.948;2023-01-26T00:35:07;37;24;19
24012;PMS7003;12220;50.194;18.948;2023-01-26T00:37:09;34;30;18
24012;PMS7003;12220;50.194;18.948;2023-01-26T00:39:11;30;28;17
24012;PMS7003;12220;50.194;18.948;2023-01-26T00:41:21;36;31;20
24012;PMS7003;12220;50.194;18.948;2023-01-26T00:43:40;29;26;15
24012;PMS7003;12220;50.194;18.948;2023-01-26T00:45:42;27;24;14
24012;PMS7003;12220;50.194;18.948;2023-01-26T00:47:44;24;22;14
24012;PMS7003;12220;50.194;18.948;2023-01-26T00:50:03;28;26;16
24012;PMS7003;12220;50.194;18.948;2023-01-26T00:51:56;23;22;13
24012;PMS7003;12220;50.194;18.948;2023-01-26T00:53:58;28;18;14
24012;PMS7003;12220;50.194;18.948;2023-01-26T00:55:59;27;24;14
24012;PMS7003;12220;50.194;18.948;2023-01-26T00:58:01;32;26;17
24012;PMS7003;12220;50.194;18.948;2023-01-26T01:00:12;26;22;14
24012;PMS7003;12220;50.194;18.948;2023-01-26T01:02:19;34;27;16
24012;PMS7003;12220;50.194;18.948;2023-01-26T01:04:21;43;32;20
24012;PMS7003;12220;50.194;18.948;2023-01-26T01:06:22;45;33;22
24012;PMS7003;12220;50.194;18.948;2023-01-26T01:08:27;36;32;17
24012;PMS7003;12220;50.194;18.948;2023-01-26T01:10:31;32;27;18
24012;PMS7003;12220;50.194;18.948;2023-01-26T01:12:33;45;29;18
24012;PMS7003;12220;50.194;18.948;2023-01-26T01:14:35;25;25;14
24012;PMS7003;12220;50.194;18.948;2023-01-26T01:16:43;24;22;14
24012;PMS7003;12220;50.194;18.948;2023-01-26T01:18:46;28;23;13
24012;PMS7003;12220;50.194;18.948;2023-01-26T01:20:50;35;28;17
24012;PMS7003;12220;50.194;18.948;2023-01-26T01:22:52;30;26;17
24012;PMS7003;12220;50.194;18.948;2023-01-26T01:24:58;26;21;12
24012;PMS7003;12220;50.194;18.948;2023-01-26T01:27:00;26;23;12
24012;PMS7003;12220;50.194;18.948;2023-01-26T01:29:01;25;22;12
24012;PMS7003;12220;50.194;18.948;2023-01-26T01:31:03;17;17;9
24012;PMS7003;12220;50.194;18.948;2023-01-26T01:33:13;29;23;12
24012;PMS7003;12220;50.194;18.948;2023-01-26T01:35:14;22;19;11
24012;PMS7003;12220;50.194;18.948;2023-01-26T01:37:16;31;29;18
24012;PMS7003;12220;50.194;18.948;2023-01-26T01:39:17;26;21;12
24012;PMS7003;12220;50.194;18.948;2023-01-26T01:41:29;28;24;13
24012;PMS7003;12220;50.194;18.948;2023-01-26T01:43:31;22;21;13
24012;PMS7003;12220;50.194;18.948;2023-01-26T01:45:39;29;25;16
24012;PMS7003;12220;50.194;18.948;2023-01-26T01:47:45;32;28;16
24012;PMS7003;12220;50.194;18.948;2023-01-26T01:49:48;25;23;13
24012;PMS7003;12220;50.194;18.948;2023-01-26T01:51:55;27;25;16
24012;PMS7003;12220;50.194;18.948;2023-01-26T01:54:03;33;28;20
24012;PMS7003;12220;50.194;18.948;2023-01-26T01:56:12;51;37;21
24012;PMS7003;12220;50.194;18.948;2023-01-26T01:58:21;40;32;20
24012;PMS7003;12220;50.194;18.948;2023-01-26T02:00:29;36;29;18
24012;PMS7003;12220;50.194;18.948;2023-01-26T02:02:31;33;28;17
24012;PMS7003;12220;50.194;18.948;2023-01-26T02:04:33;29;22;14
24012;PMS7003;12220;50.194;18.948;2023-01-26T02:08:48;24;23;12
24012;PMS7003;12220;50.194;18.948;2023-01-26T02:11:10;28;24;14
24012;PMS7003;12220;50.194;18.948;2023-01-26T02:13:27;30;22;15
24012;PMS7003;12220;50.194;18.948;2023-01-26T02:15:31;26;21;15
24012;PMS7003;12220;50.194;18.948;2023-01-26T02:17:33;27;22;14
24012;PMS7003;12220;50.194;18.948;2023-01-26T02:21:50;27;26;14
24012;PMS7003;12220;50.194;18.948;2023-01-26T02:26:26;22;22;11
24012;PMS7003;12220;50.194;18.948;2023-01-26T02:28:30;17;17;12
24012;PMS7003;12220;50.194;18.948;2023-01-26T02:30:32;16;15;10
24012;PMS7003;12220;50.194;18.948;2023-01-26T02:32:34;20;19;10
24012;PMS7003;12220;50.194;18.948;2023-01-26T02:34:40;22;17;11
24012;PMS7003;12220;50.194;18.948;2023-01-26T02:36:42;23;17;10
24012;PMS7003;12220;50.194;18.948;2023-01-26T02:41:14;23;17;11
24012;PMS7003;12220;50.194;18.948;2023-01-26T02:43:08;22;17;11
24012;PMS7003;12220;50.194;18.948;2023-01-26T02:45:17;29;22;12
24012;PMS7003;12220;50.194;18.948;2023-01-26T02:47:19;26;21;12
24012;PMS7003;12220;50.194;18.948;2023-01-26T02:49:20;21;19;14
24012;PMS7003;12220;50.194;18.948;2023-01-26T02:51:33;19;17;10
24012;PMS7003;12220;50.194;18.948;2023-01-26T02:53:35;23;21;12
24012;PMS7003;12220;50.194;18.948;2023-01-26T02:55:36;16;14;7
24012;PMS7003;12220;50.194;18.948;2023-01-26T02:57:38;19;16;13
24012;PMS7003;12220;50.194;18.948;2023-01-26T02:59:40;24;17;9
24012;PMS7003;12220;50.194;18.948;2023-01-26T03:01:48;25;23;11
24012;PMS7003;12220;50.194;18.948;2023-01-26T03:03:52;26;18;10
24012;PMS7003;12220;50.194;18.948;2023-01-26T03:05:53;13;13;9
24012;PMS7003;12220;50.194;18.948;2023-01-26T03:07:55;15;11;8
24012;PMS7003;12220;50.194;18.948;2023-01-26T03:10:03;15;13;7
24012;PMS7003;12220;50.194;18.948;2023-01-26T03:12:05;12;10;8
24012;PMS7003;12220;50.194;18.948;2023-01-26T03:14:08;17;17;9
24012;PMS7003;12220;50.194;18.948;2023-01-26T03:16:10;25;17;10
24012;PMS7003;12220;50.194;18.948;2023-01-26T03:18:18;12;9;5
24012;PMS7003;12220;50.194;18.948;2023-01-26T03:20:39;17;11;7
24012;PMS7003;12220;50.194;18.948;2023-01-26T03:23:00;23;19;13
24012;PMS7003;12220;50.194;18.948;2023-01-26T03:25:22;26;22;13
24012;PMS7003;12220;50.194;18.948;2023-01-26T03:27:44;25;19;12
24012;PMS7003;12220;50.194;18.948;2023-01-26T03:29:47;22;17;11
24012;PMS7003;12220;50.194;18.948;2023-01-26T03:31:49;21;17;10
24012;PMS7003;12220;50.194;18.948;2023-01-26T03:33:50;14;11;7
24012;PMS7003;12220;50.194;18.948;2023-01-26T03:35:58;17;15;9
24012;PMS7003;12220;50.194;18.948;2023-01-26T03:38:00;18;17;9
24012;PMS7003;12220;50.194;18.948;2023-01-26T03:40:02;17;15;10
24012;PMS7003;12220;50.194;18.948;2023-01-26T03:42:16;21;16;9
24012;PMS7003;12220;50.194;18.948;2023-01-26T03:44:29;18;17;12
24012;PMS7003;12220;50.194;18.948;2023-01-26T03:46:42;20;19;10
24012;PMS7003;12220;50.194;18.948;2023-01-26T03:48:56;16;15;9
24012;PMS7003;12220;50.194;18.948;2023-01-26T03:51:18;21;19;12
24012;PMS7003;12220;50.194;18.948;2023-01-26T03:53:39;31;21;11
24012;PMS7003;12220;50.194;18.948;2023-01-26T03:56:01;25;16;11
24012;PMS7003;12220;50.194;18.948;2023-01-26T03:58:22;17;14;10
24012;PMS7003;12220;50.194;18.948;2023-01-26T04:00:24;23;15;9
24012;PMS7003;12220;50.194;18.948;2023-01-26T04:02:25;18;14;7
24012;PMS7003;12220;50.194;18.948;2023-01-26T04:04:38;24;16;9
24012;PMS7003;12220;50.194;18.948;2023-01-26T04:06:54;21;15;9
24012;PMS7003;12220;50.194;18.948;2023-01-26T04:09:12;16;16;10
24012;PMS7003;12220;50.194;18.948;2023-01-26T04:11:20;21;18;12
24012;PMS7003;12220;50.194;18.948;2023-01-26T04:13:22;19;14;10
24012;PMS7003;12220;50.194;18.948;2023-01-26T04:15:36;22;17;12
24012;PMS7003;12220;50.194;18.948;2023-01-26T04:17:50;21;17;12
24012;PMS7003;12220;50.194;18.948;2023-01-26T04:20:04;20;19;12
24012;PMS7003;12220;50.194;18.948;2023-01-26T04:22:18;22;16;9
24012;PMS7003;12220;50.194;18.948;2023-01-26T04:24:24;18;16;11
24012;PMS7003;12220;50.194;18.948;2023-01-26T04:26:26;20;17;10
24012;PMS7003;12220;50.194;18.948;2023-01-26T04:28:34;17;15;9
24012;PMS7003;12220;50.194;18.948;2023-01-26T04:30:37;21;19;13
24012;PMS7003;12220;50.194;18.948;2023-01-26T04:32:39;21;18;11
24012;PMS7003;12220;50.194;18.948;2023-01-26T04:34:41;17;12;8
24012;PMS7003;12220;50.194;18.948;2023-01-26T04:36:42;25;21;13
24012;PMS7003;12220;50.194;18.948;2023-01-26T04:38:44;20;14;9
24012;PMS7003;12220;50.194;18.948;2023-01-26T04:40:54;16;12;9
24012;PMS7003;12220;50.194;18.948;2023-01-26T04:42:56;12;11;7
24012;PMS7003;12220;50.194;18.948;2023-01-26T04:44:57;17;14;9
24012;PMS7003;12220;50.194;18.948;2023-01-26T04:46:59;16;11;9
24012;PMS7003;12220;50.194;18.948;2023-01-26T04:49:09;13;13;6
24012;PMS7003;12220;50.194;18.948;2023-01-26T04:51:12;26;20;11
24012;PMS7003;12220;50.194;18.948;2023-01-26T04:53:20;17;14;9
24012;PMS7003;12220;50.194;18.948;2023-01-26T04:55:22;17;12;9
24012;PMS7003;12220;50.194;18.948;2023-01-26T04:57:25;14;12;7
24012;PMS7003;12220;50.194;18.948;2023-01-26T04:59:29;16;15;9
24012;PMS7003;12220;50.194;18.948;2023-01-26T05:01:31;22;17;9
24012;PMS7003;12220;50.194;18.948;2023-01-26T05:03:33;16;16;11
24012;PMS7003;12220;50.194;18.948;2023-01-26T05:05:40;23;18;10
24012;PMS7003;12220;50.194;18.948;2023-01-26T05:07:42;21;15;9
24012;PMS7003;12220;50.194;18.948;2023-01-26T05:09:43;17;16;10
24012;PMS7003;12220;50.194;18.948;2023-01-26T05:11:47;20;19;9
24012;PMS7003;12220;50.194;18.948;2023-01-26T05:13:55;18;17;11
24012;PMS7003;12220;50.194;18.948;2023-01-26T05:15:57;24;18;12
24012;PMS7003;12220;50.194;18.948;2023-01-26T05:18:01;16;15;8
24012;PMS7003;12220;50.194;18.948;2023-01-26T05:20:04;21;16;11
24012;PMS7003;12220;50.194;18.948;2023-01-26T05:22:11;24;21;14
24012;PMS7003;12220;50.194;18.948;2023-01-26T05:24:12;38;25;12
24012;PMS7003;12220;50.194;18.948;2023-01-26T05:26:14;24;20;10
24012;PMS7003;12220;50.194;18.948;2023-01-26T05:28:15;28;25;16
24012;PMS7003;12220;50.194;18.948;2023-01-26T05:30:27;23;20;14
24012;PMS7003;12220;50.194;18.948;2023-01-26T05:32:29;33;27;14
24012;PMS7003;12220;50.194;18.948;2023-01-26T05:34:41;41;33;20
24012;PMS7003;12220;50.194;18.948;2023-01-26T05:36:41;35;29;16
24012;PMS7003;12220;50.194;18.948;2023-01-26T05:38:50;34;31;19
24012;PMS7003;12220;50.194;18.948;2023-01-26T05:40:51;36;24;18
24012;PMS7003;12220;50.194;18.948;2023-01-26T05:42:56;43;33;20
24012;PMS7003;12220;50.194;18.948;2023-01-26T05:44:57;48;35;22
24012;PMS7003;12220;50.194;18.948;2023-01-26T05:47:01;42;32;20
24012;PMS7003;12220;50.194;18.948;2023-01-26T05:49:02;38;28;19
24012;PMS7003;12220;50.194;18.948;2023-01-26T05:51:04;34;29;17
24012;PMS7003;12220;50.194;18.948;2023-01-26T05:53:06;41;30;17
24012;PMS7003;12220;50.194;18.948;2023-01-26T05:55:17;29;26;17
24012;PMS7003;12220;50.194;18.948;2023-01-26T05:57:19;35;29;16
24012;PMS7003;12220;50.194;18.948;2023-01-26T05:59:25;39;27;16
24012;PMS7003;12220;50.194;18.948;2023-01-26T06:01:27;46;34;21
24012;PMS7003;12220;50.194;18.948;2023-01-26T06:03:32;39;31;20
24012;PMS7003;12220;50.194;18.948;2023-01-26T06:05:33;37;32;20
24012;PMS7003;12220;50.194;18.948;2023-01-26T06:07:35;32;27;18
24012;PMS7003;12220;50.194;18.948;2023-01-26T06:09:45;38;31;19
24012;PMS7003;12220;50.194;18.948;2023-01-26T06:11:47;38;26;15
24012;PMS7003;12220;50.194;18.948;2023-01-26T06:13:49;44;32;19
24012;PMS7003;12220;50.194;18.948;2023-01-26T06:15:50;35;32;20
24012;PMS7003;12220;50.194;18.948;2023-01-26T06:17:52;30;30;21
24012;PMS7003;12220;50.194;18.948;2023-01-26T06:20:04;40;33;22
24012;PMS7003;12220;50.194;18.948;2023-01-26T06:22:06;36;30;20
24012;PMS7003;12220;50.194;18.948;2023-01-26T06:24:12;26;23;12
24012;PMS7003;12220;50.194;18.948;2023-01-26T06:26:13;36;30;17
24012;PMS7003;12220;50.194;18.948;2023-01-26T06:28:17;46;35;19
24012;PMS7003;12220;50.194;18.948;2023-01-26T06:30:19;30;27;20
24012;PMS7003;12220;50.194;18.948;2023-01-26T06:32:21;41;35;19
24012;PMS7003;12220;50.194;18.948;2023-01-26T06:34:23;39;33;20
24012;PMS7003;12220;50.194;18.948;2023-01-26T06:36:33;31;27;17
24012;PMS7003;12220;50.194;18.948;2023-01-26T06:38:35;40;32;20
24012;PMS7003;12220;50.194;18.948;2023-01-26T06:40:37;39;31;20
24012;PMS7003;12220;50.194;18.948;2023-01-26T06:42:38;32;29;20
24012;PMS7003;12220;50.194;18.948;2023-01-26T06:44:48;36;33;20
24012;PMS7003;12220;50.194;18.948;2023-01-26T06:46:51;35;29;17
24012;PMS7003;12220;50.194;18.948;2023-01-26T06:48:53;30;26;20
24012;PMS7003;12220;50.194;18.948;2023-01-26T06:57:46;43;33;21
24012;PMS7003;12220;50.194;18.948;2023-01-26T06:59:47;44;31;19
24012;PMS7003;12220;50.194;18.948;2023-01-26T07:01:49;45;38;22
24012;PMS7003;12220;50.194;18.948;2023-01-26T07:03:51;36;33;22
24012;PMS7003;12220;50.194;18.948;2023-01-26T07:06:01;43;34;20
24012;PMS7003;12220;50.194;18.948;2023-01-26T07:08:03;38;32;20
24012;PMS7003;12220;50.194;18.948;2023-01-26T07:10:08;47;36;23
24012;PMS7003;12220;50.194;18.948;2023-01-26T07:12:10;47;33;23
24012;PMS7003;12220;50.194;18.948;2023-01-26T07:14:16;44;35;20
24012;PMS7003;12220;50.194;18.948;2023-01-26T07:16:18;44;33;18
24012;PMS7003;12220;50.194;18.948;2023-01-26T07:18:19;46;38;22
24012;PMS7003;12220;50.194;18.948;2023-01-26T07:20:21;57;45;29
24012;PMS7003;12220;50.194;18.948;2023-01-26T07:22:31;59;44;27
24012;PMS7003;12220;50.194;18.948;2023-01-26T07:24:33;56;45;28
24012;PMS7003;12220;50.194;18.948;2023-01-26T07:26:37;53;44;26
24012;PMS7003;12220;50.194;18.948;2023-01-26T07:28:39;50;40;25
24012;PMS7003;12220;50.194;18.948;2023-01-26T07:30:47;50;38;23
24012;PMS7003;12220;50.194;18.948;2023-01-26T07:32:48;49;36;23
24012;PMS7003;12220;50.194;18.948;2023-01-26T07:34:50;46;37;23
24012;PMS7003;12220;50.194;18.948;2023-01-26T07:36:52;46;36;22
24012;PMS7003;12220;50.194;18.948;2023-01-26T07:39:02;43;33;23
24012;PMS7003;12220;50.194;18.948;2023-01-26T07:41:06;40;35;23
24012;PMS7003;12220;50.194;18.948;2023-01-26T07:43:09;45;35;23
24012;PMS7003;12220;50.194;18.948;2023-01-26T07:45:11;42;33;20
24012;PMS7003;12220;50.194;18.948;2023-01-26T07:47:17;45;38;23
24012;PMS7003;12220;50.194;18.948;2023-01-26T07:49:19;37;33;22
24012;PMS7003;12220;50.194;18.948;2023-01-26T07:51:21;33;27;18
24012;PMS7003;12220;50.194;18.948;2023-01-26T07:53:23;45;35;20
24012;PMS7003;12220;50.194;18.948;2023-01-26T07:55:32;54;41;25
24012;PMS7003;12220;50.194;18.948;2023-01-26T07:57:34;52;39;24
24012;PMS7003;12220;50.194;18.948;2023-01-26T07:59:35;52;38;24
24012;PMS7003;12220;50.194;18.948;2023-01-26T08:01:37;43;38;25
24012;PMS7003;12220;50.194;18.948;2023-01-26T08:03:51;51;40;25
24012;PMS7003;12220;50.194;18.948;2023-01-26T08:05:55;50;36;23
24012;PMS7003;12220;50.194;18.948;2023-01-26T08:08:00;51;41;25
24012;PMS7003;12220;50.194;18.948;2023-01-26T08:10:01;49;39;22
24012;PMS7003;12220;50.194;18.948;2023-01-26T08:12:04;42;36;22
24012;PMS7003;12220;50.194;18.948;2023-01-26T08:14:06;48;37;24
24012;PMS7003;12220;50.194;18.948;2023-01-26T08:16:09;48;38;24
24012;PMS7003;12220;50.194;18.948;2023-01-26T08:18:14;42;33;21
24012;PMS7003;12220;50.194;18.948;2023-01-26T08:20:18;43;33;23
24012;PMS7003;12220;50.194;18.948;2023-01-26T08:22:20;46;29;18
24012;PMS7003;12220;50.194;18.948;2023-01-26T08:24:21;44;30;21
24012;PMS7003;12220;50.194;18.948;2023-01-26T08:26:23;44;34;22
24012;PMS7003;12220;50.194;18.948;2023-01-26T08:28:33;42;32;21
24012;PMS7003;12220;50.194;18.948;2023-01-26T08:30:37;56;40;23
24012;PMS7003;12220;50.194;18.948;2023-01-26T08:32:39;49;37;23
24012;PMS7003;12220;50.194;18.948;2023-01-26T08:34:41;43;34;21
24012;PMS7003;12220;50.194;18.948;2023-01-26T08:36:48;36;31;19
24012;PMS7003;12220;50.194;18.948;2023-01-26T08:38:50;43;35;23
24012;PMS7003;12220;50.194;18.948;2023-01-26T08:40:52;41;31;21
24012;PMS7003;12220;50.194;18.948;2023-01-26T08:42:54;27;25;19
24012;PMS7003;12220;50.194;18.948;2023-01-26T08:45:06;43;33;20
24012;PMS7003;12220;50.194;18.948;2023-01-26T08:47:09;39;34;18
24012;PMS7003;12220;50.194;18.948;2023-01-26T08:49:10;38;34;20
24012;PMS7003;12220;50.194;18.948;2023-01-26T08:51:12;43;34;19
24012;PMS7003;12220;50.194;18.948;2023-01-26T08:53:18;36;29;21
24012;PMS7003;12220;50.194;18.948;2023-01-26T08:55:20;41;33;20
24012;PMS7003;12220;50.194;18.948;2023-01-26T08:57:21;44;35;23
24012;PMS7003;12220;50.194;18.948;2023-01-26T08:59:23;37;31;18
24012;PMS7003;12220;50.194;18.948;2023-01-26T09:01:33;43;35;23
24012;PMS7003;12220;50.194;18.948;2023-01-26T09:03:35;41;32;21
24012;PMS7003;12220;50.194;18.948;2023-01-26T09:05:37;44;31;21
24012;PMS7003;12220;50.194;18.948;2023-01-26T09:07:40;47;36;23
24012;PMS7003;12220;50.194;18.948;2023-01-26T09:09:51;46;37;24
24012;PMS7003;12220;50.194;18.948;2023-01-26T09:11:55;56;44;27
24012;PMS7003;12220;50.194;18.948;2023-01-26T09:13:57;40;33;20
24012;PMS7003;12220;50.194;18.948;2023-01-26T09:16:01;52;39;24
24012;PMS7003;12220;50.194;18.948;2023-01-26T09:18:04;56;43;23
24012;PMS7003;12220;50.194;18.948;2023-01-26T09:20:06;64;48;27
24012;PMS7003;12220;50.194;18.948;2023-01-26T09:22:12;71;53;33
24012;PMS7003;12220;50.194;18.948;2023-01-26T09:24:13;66;52;30
24012;PMS7003;12220;50.194;18.948;2023-01-26T09:26:19;60;47;29
24012;PMS7003;12220;50.194;18.948;2023-01-26T09:28:21;62;48;27
24012;PMS7003;12220;50.194;18.948;2023-01-26T09:30:22;62;45;28
24012;PMS7003;12220;50.194;18.948;2023-01-26T09:32:24;56;44;27
24012;PMS7003;12220;50.194;18.948;2023-01-26T09:39:17;46;39;26
24012;PMS7003;12220;50.194;18.948;2023-01-26T09:43:37;44;35;21
24012;PMS7003;12220;50.194;18.948;2023-01-26T09:45:52;50;39;21
24012;PMS7003;12220;50.194;18.948;2023-01-26T09:48:09;47;40;25
24012;PMS7003;12220;50.194;18.948;2023-01-26T09:50:26;53;41;24
24012;PMS7003;12220;50.194;18.948;2023-01-26T09:52:32;53;39;23
24012;PMS7003;12220;50.194;18.948;2023-01-26T09:54:47;51;39;24
24012;PMS7003;12220;50.194;18.948;2023-01-26T09:57:09;57;41;25
24012;PMS7003;12220;50.194;18.948;2023-01-26T10:03:50;60;46;27
24012;PMS7003;12220;50.194;18.948;2023-01-26T10:08:10;45;36;25
24012;PMS7003;12220;50.194;18.948;2023-01-26T10:10:17;48;39;23
24012;PMS7003;12220;50.194;18.948;2023-01-26T10:12:25;49;35;21
24012;PMS7003;12220;50.194;18.948;2023-01-26T10:14:35;51;41;24
24012;PMS7003;12220;50.194;18.948;2023-01-26T10:16:43;52;41;22
24012;PMS7003;12220;50.194;18.948;2023-01-26T10:21:00;50;39;24
24012;PMS7003;12220;50.194;18.948;2023-01-26T10:25:17;46;38;23
24012;PMS7003;12220;50.194;18.948;2023-01-26T10:27:21;47;38;24
24012;PMS7003;12220;50.194;18.948;2023-01-26T10:29:22;44;33;24
24012;PMS7003;12220;50.194;18.948;2023-01-26T10:31:26;46;37;23
24012;PMS7003;12220;50.194;18.948;2023-01-26T10:33:30;47;35;21
24012;PMS7003;12220;50.194;18.948;2023-01-26T10:35:36;46;33;22
24012;PMS7003;12220;50.194;18.948;2023-01-26T10:37:38;34;29;17
24012;PMS7003;12220;50.194;18.948;2023-01-26T10:41:56;47;35;23
24012;PMS7003;12220;50.194;18.948;2023-01-26T10:44:03;48;36;23
24012;PMS7003;12220;50.194;18.948;2023-01-26T10:48:26;41;34;21
24012;PMS7003;12220;50.194;18.948;2023-01-26T10:55:36;34;25;16
24012;PMS7003;12220;50.194;18.948;2023-01-26T10:57:46;37;24;16
24012;PMS7003;12220;50.194;18.948;2023-01-26T10:59:52;26;23;16
24012;PMS7003;12220;50.194;18.948;2023-01-26T11:02:16;35;29;17
24012;PMS7003;12220;50.194;18.948;2023-01-26T11:04:11;28;26;16
24012;PMS7003;12220;50.194;18.948;2023-01-26T11:06:15;34;31;20
24012;PMS7003;12220;50.194;18.948;2023-01-26T11:15:11;33;26;20
24012;PMS7003;12220;50.194;18.948;2023-01-26T11:17:20;27;25;17
24012;PMS7003;12220;50.194;18.948;2023-01-26T11:35:45;112;95;40
24012;PMS7003;12220;50.194;18.948;2023-01-26T11:38:18;110;77;37
24012;PMS7003;12220;50.194;18.948;2023-01-26T11:52:16;44;34;19
24012;PMS7003;12220;50.194;18.948;2023-01-26T11:57:05;36;32;20
24012;PMS7003;12220;50.194;18.948;2023-01-26T11:59:20;39;31;20
24012;PMS7003;12220;50.194;18.948;2023-01-26T12:04:00;27;21;14
24012;PMS7003;12220;50.194;18.948;2023-01-26T12:06:04;29;23;13
24012;PMS7003;12220;50.194;18.948;2023-01-26T12:10:26;30;28;16
24012;PMS7003;12220;50.194;18.948;2023-01-26T12:14:50;49;37;23
24012;PMS7003;12220;50.194;18.948;2023-01-26T12:17:06;40;31;23
24012;PMS7003;12220;50.194;18.948;2023-01-26T12:21:44;38;33;20
24012;PMS7003;12220;50.194;18.948;2023-01-26T12:23:49;32;28;18
24012;PMS7003;12220;50.194;18.948;2023-01-26T12:25:59;24;22;17
24012;PMS7003;12220;50.194;18.948;2023-01-26T12:28:17;23;22;14
24012;PMS7003;12220;50.194;18.948;2023-01-26T12:32:44;14;11;7
24012;PMS7003;12220;50.194;18.948;2023-01-26T12:34:46;35;30;17
24012;PMS7003;12220;50.194;18.948;2023-01-26T12:43:40;32;30;18
24012;PMS7003;12220;50.194;18.948;2023-01-26T12:45:49;32;26;10
24012;PMS7003;12220;50.194;18.948;2023-01-26T12:47:55;24;24;18
24012;PMS7003;12220;50.194;18.948;2023-01-26T12:54:58;34;28;18
24012;PMS7003;12220;50.194;18.948;2023-01-26T12:57:19;25;24;18
24012;PMS7003;12220;50.194;18.948;2023-01-26T12:59:31;32;28;17
24012;PMS7003;12220;50.194;18.948;2023-01-26T13:01:37;29;26;16
24012;PMS7003;12220;50.194;18.948;2023-01-26T13:06:02;46;31;19
24012;PMS7003;12220;50.194;18.948;2023-01-26T13:10:28;33;30;20
24012;PMS7003;12220;50.194;18.948;2023-01-26T13:12:49;35;29;18
24012;PMS7003;12220;50.194;18.948;2023-01-26T13:14:57;29;23;15
24012;PMS7003;12220;50.194;18.948;2023-01-26T13:19:33;30;25;14
24012;PMS7003;12220;50.194;18.948;2023-01-26T13:21:26;25;20;13
24012;PMS7003;12220;50.194;18.948;2023-01-26T13:23:36;30;26;14
24012;PMS7003;12220;50.194;18.948;2023-01-26T13:26:08;25;20;13
24012;PMS7003;12220;50.194;18.948;2023-01-26T13:28:13;24;24;14
24012;PMS7003;12220;50.194;18.948;2023-01-26T13:30:28;24;19;11
24012;PMS7003;12220;50.194;18.948;2023-01-26T13:39:23;23;21;11
24012;PMS7003;12220;50.194;18.948;2023-01-26T13:41:27;26;24;15
24012;PMS7003;12220;50.194;18.948;2023-01-26T13:43:31;23;19;10
24012;PMS7003;12220;50.194;18.948;2023-01-26T13:47:54;29;20;12
24012;PMS7003;12220;50.194;18.948;2023-01-26T13:49:58;23;19;14
24012;PMS7003;12220;50.194;18.948;2023-01-26T13:54:26;22;18;14
24012;PMS7003;12220;50.194;18.948;2023-01-26T13:56:32;16;16;11
24012;PMS7003;12220;50.194;18.948;2023-01-26T13:58:38;25;19;11
24012;PMS7003;12220;50.194;18.948;2023-01-26T14:00:40;30;28;16
24012;PMS7003;12220;50.194;18.948;2023-01-26T14:02:46;30;25;15
24012;PMS7003;12220;50.194;18.948;2023-01-26T14:04:51;30;27;16
24012;PMS7003;12220;50.194;18.948;2023-01-26T14:07:02;34;23;14
24012;PMS7003;12220;50.194;18.948;2023-01-26T14:09:09;22;18;12
24012;PMS7003;12220;50.194;18.948;2023-01-26T14:11:15;30;27;16
24012;PMS7003;12220;50.194;18.948;2023-01-26T14:15:45;32;25;13
24012;PMS7003;12220;50.194;18.948;2023-01-26T14:18:18;21;19;14
24012;PMS7003;12220;50.194;18.948;2023-01-26T14:20:32;23;20;15
24012;PMS7003;12220;50.194;18.948;2023-01-26T14:22:36;28;25;16
24012;PMS7003;12220;50.194;18.948;2023-01-26T14:24:40;32;23;15
24012;PMS7003;12220;50.194;18.948;2023-01-26T14:26:43;22;21;14
24012;PMS7003;12220;50.194;18.948;2023-01-26T14:28:47;24;20;13
24012;PMS7003;12220;50.194;18.948;2023-01-26T14:30:53;33;25;15
24012;PMS7003;12220;50.194;18.948;2023-01-26T14:37:23;23;21;15
24012;PMS7003;12220;50.194;18.948;2023-01-26T14:39:31;32;25;15
24012;PMS7003;12220;50.194;18.948;2023-01-26T14:41:33;32;24;14
24012;PMS7003;12220;50.194;18.948;2023-01-26T14:43:37;26;23;15
24012;PMS7003;12220;50.194;18.948;2023-01-26T14:45:39;29;24;16
24012;PMS7003;12220;50.194;18.948;2023-01-26T14:47:49;39;31;20
24012;PMS7003;12220;50.194;18.948;2023-01-26T14:49:54;37;33;22
24012;PMS7003;12220;50.194;18.948;2023-01-26T14:52:01;32;28;20
24012;PMS7003;12220;50.194;18.948;2023-01-26T14:54:09;40;33;22
24012;PMS7003;12220;50.194;18.948;2023-01-26T14:56:18;47;35;24
24012;PMS7003;12220;50.194;18.948;2023-01-26T14:58:28;39;32;21
24012;PMS7003;12220;50.194;18.948;2023-01-26T15:00:34;36;32;22
24012;PMS7003;12220;50.194;18.948;2023-01-26T15:02:41;40;31;21
24012;PMS7003;12220;50.194;18.948;2023-01-26T15:04:56;40;33;19
24012;PMS7003;12220;50.194;18.948;2023-01-26T15:07:19;34;31;20
24012;PMS7003;12220;50.194;18.948;2023-01-26T15:13:50;37;29;20
24012;PMS7003;12220;50.194;18.948;2023-01-26T15:18:15;38;30;19
24012;PMS7003;12220;50.194;18.948;2023-01-26T15:22:29;40;33;20
24012;PMS7003;12220;50.194;18.948;2023-01-26T15:24:32;36;32;21
24012;PMS7003;12220;50.194;18.948;2023-01-26T15:26:34;30;29;20
24012;PMS7003;12220;50.194;18.948;2023-01-26T15:28:38;41;35;22
24012;PMS7003;12220;50.194;18.948;2023-01-26T15:30:44;42;30;20
24012;PMS7003;12220;50.194;18.948;2023-01-26T15:32:48;41;33;20
24012;PMS7003;12220;50.194;18.948;2023-01-26T15:35:01;38;33;20